sensor_id;sensor_type;location;lat;lon;timestamp;P1;durP1;ratioP1;P2;durP2;ratioP2
21181;SDS011;10749;46.296;7.524;2022-11-10T00:02:01;11.33;;;9.63;;
21181;SDS011;10749;46.296;7.524;2022-11-10T00:04:26;13.47;;;9.93;;
21181;SDS011;10749;46.296;7.524;2022-11-10T00:06:51;13.63;;;10.87;;
21181;SDS011;10749;46.296;7.524;2022-11-10T00:09:16;12.40;;;9.93;;
21181;SDS011;10749;46.296;7.524;2022-11-10T00:11:42;14.40;;;11.00;;
21181;SDS011;10749;46.296;7.524;2022-11-10T00:14:07;12.87;;;10.33;;
21181;SDS011;10749;46.296;7.524;2022-11-10T00:16:52;14.43;;;10.63;;
21181;SDS011;10749;46.296;7.524;2022-11-10T00:19:28;14.87;;;10.33;;
21181;SDS011;10749;46.296;7.524;2022-11-10T00:21:58;14.57;;;10.87;;
21181;SDS011;10749;46.296;7.524;2022-11-10T00:24:24;14.00;;;10.40;;
21181;SDS011;10749;46.296;7.524;2022-11-10T00:26:50;12.60;;;9.90;;
21181;SDS011;10749;46.296;7.524;2022-11-10T00:29:15;15.53;;;11.37;;
21181;SDS011;10749;46.296;7.524;2022-11-10T00:31:41;15.53;;;11.63;;
21181;SDS011;10749;46.296;7.524;2022-11-10T00:34:07;12.80;;;10.33;;
21181;SDS011;10749;46.296;7.524;2022-11-10T00:36:38;14.20;;;11.17;;
21181;SDS011;10749;46.296;7.524;2022-11-10T00:39:03;14.37;;;10.33;;
21181;SDS011;10749;46.296;7.524;2022-11-10T00:41:29;17.73;;;11.13;;
21181;SDS011;10749;46.296;7.524;2022-11-10T00:43:54;13.40;;;10.53;;
21181;SDS011;10749;46.296;7.524;2022-11-10T00:46:20;12.00;;;9.97;;
21181;SDS011;10749;46.296;7.524;2022-11-10T00:48:45;13.60;;;10.70;;
21181;SDS011;10749;46.296;7.524;2022-11-10T00:51:14;14.63;;;9.90;;
21181;SDS011;10749;46.296;7.524;2022-11-10T00:53:45;14.20;;;10.03;;
21181;SDS011;10749;46.296;7.524;2022-11-10T00:56:10;12.83;;;10.00;;
21181;SDS011;10749;46.296;7.524;2022-11-10T00:58:36;16.00;;;10.90;;
21181;SDS011;10749;46.296;7.524;2022-11-10T01:01:02;13.77;;;10.00;;
21181;SDS011;10749;46.296;7.524;2022-11-10T01:03:28;10.93;;;8.87;;
21181;SDS011;10749;46.296;7.524;2022-11-10T01:05:53;8.47;;;7.03;;
21181;SDS011;10749;46.296;7.524;2022-11-10T01:08:19;9.93;;;7.70;;
21181;SDS011;10749;46.296;7.524;2022-11-10T01:10:44;11.87;;;8.63;;
21181;SDS011;10749;46.296;7.524;2022-11-10T01:13:09;11.17;;;8.50;;
21181;SDS011;10749;46.296;7.524;2022-11-10T01:15:38;12.07;;;8.80;;
21181;SDS011;10749;46.296;7.524;2022-11-10T01:18:04;10.07;;;8.50;;
21181;SDS011;10749;46.296;7.524;2022-11-10T01:20:29;12.20;;;8.60;;
21181;SDS011;10749;46.296;7.524;2022-11-10T01:22:56;11.07;;;8.70;;
21181;SDS011;10749;46.296;7.524;2022-11-10T01:25:21;11.83;;;9.40;;
21181;SDS011;10749;46.296;7.524;2022-11-10T01:27:47;11.47;;;8.70;;
21181;SDS011;10749;46.296;7.524;2022-11-10T01:30:12;14.67;;;9.47;;
21181;SDS011;10749;46.296;7.524;2022-11-10T01:32:38;11.13;;;9.20;;
21181;SDS011;10749;46.296;7.524;2022-11-10T01:35:03;12.17;;;9.47;;
21181;SDS011;10749;46.296;7.524;2022-11-10T01:37:29;12.27;;;9.57;;
21181;SDS011;10749;46.296;7.524;2022-11-10T01:39:55;12.60;;;9.23;;
21181;SDS011;10749;46.296;7.524;2022-11-10T01:42:27;11.60;;;9.00;;
21181;SDS011;10749;46.296;7.524;2022-11-10T01:47:46;11.73;;;9.23;;
21181;SDS011;10749;46.296;7.524;2022-11-10T01:50:11;15.40;;;9.90;;
21181;SDS011;10749;46.296;7.524;2022-11-10T01:52:37;11.97;;;9.47;;
21181;SDS011;10749;46.296;7.524;2022-11-10T01:55:03;11.97;;;9.63;;
21181;SDS011;10749;46.296;7.524;2022-11-10T01:57:28;12.50;;;9.57;;
21181;SDS011;10749;46.296;7.524;2022-11-10T01:59:54;13.80;;;9.90;;
21181;SDS011;10749;46.296;7.524;2022-11-10T02:02:21;11.67;;;9.47;;
21181;SDS011;10749;46.296;7.524;2022-11-10T02:04:51;12.07;;;9.27;;
21181;SDS011;10749;46.296;7.524;2022-11-10T02:07:17;13.97;;;9.80;;
21181;SDS011;10749;46.296;7.524;2022-11-10T02:09:43;14.13;;;10.67;;
21181;SDS011;10749;46.296;7.524;2022-11-10T02:12:09;11.90;;;9.83;;
21181;SDS011;10749;46.296;7.524;2022-11-10T02:14:35;11.83;;;9.63;;
21181;SDS011;10749;46.296;7.524;2022-11-10T02:17:01;11.43;;;9.67;;
21181;SDS011;10749;46.296;7.524;2022-11-10T02:19:26;14.10;;;10.07;;
21181;SDS011;10749;46.296;7.524;2022-11-10T02:21:52;10.47;;;9.00;;
21181;SDS011;10749;46.296;7.524;2022-11-10T02:24:17;12.60;;;9.73;;
21181;SDS011;10749;46.296;7.524;2022-11-10T02:26:44;13.57;;;9.67;;
21181;SDS011;10749;46.296;7.524;2022-11-10T02:29:14;11.70;;;9.47;;
21181;SDS011;10749;46.296;7.524;2022-11-10T02:31:40;11.00;;;9.03;;
21181;SDS011;10749;46.296;7.524;2022-11-10T02:34:05;9.43;;;8.30;;
21181;SDS011;10749;46.296;7.524;2022-11-10T02:36:31;10.23;;;8.57;;
21181;SDS011;10749;46.296;7.524;2022-11-10T02:38:56;13.93;;;9.27;;
21181;SDS011;10749;46.296;7.524;2022-11-10T02:41:21;15.60;;;9.93;;
21181;SDS011;10749;46.296;7.524;2022-11-10T02:43:47;16.57;;;10.00;;
21181;SDS011;10749;46.296;7.524;2022-11-10T02:46:12;17.03;;;10.47;;
21181;SDS011;10749;46.296;7.524;2022-11-10T02:48:38;13.43;;;10.10;;
21181;SDS011;10749;46.296;7.524;2022-11-10T02:51:03;34.43;;;11.30;;
21181;SDS011;10749;46.296;7.524;2022-11-10T02:53:28;47.37;;;11.40;;
21181;SDS011;10749;46.296;7.524;2022-11-10T02:55:54;15.17;;;10.27;;
21181;SDS011;10749;46.296;7.524;2022-11-10T02:58:19;16.90;;;10.63;;
21181;SDS011;10749;46.296;7.524;2022-11-10T03:00:44;14.43;;;10.23;;
21181;SDS011;10749;46.296;7.524;2022-11-10T03:03:10;13.23;;;10.00;;
21181;SDS011;10749;46.296;7.524;2022-11-10T03:05:35;14.23;;;10.90;;
21181;SDS011;10749;46.296;7.524;2022-11-10T03:08:01;15.70;;;10.63;;
21181;SDS011;10749;46.296;7.524;2022-11-10T03:10:27;12.93;;;10.33;;
21181;SDS011;10749;46.296;7.524;2022-11-10T03:12:57;13.00;;;10.00;;
21181;SDS011;10749;46.296;7.524;2022-11-10T03:15:25;11.83;;;8.47;;
21181;SDS011;10749;46.296;7.524;2022-11-10T03:17:51;12.07;;;8.83;;
21181;SDS011;10749;46.296;7.524;2022-11-10T03:20:16;11.30;;;9.30;;
21181;SDS011;10749;46.296;7.524;2022-11-10T03:22:45;12.20;;;9.13;;
21181;SDS011;10749;46.296;7.524;2022-11-10T03:25:11;12.77;;;9.10;;
21181;SDS011;10749;46.296;7.524;2022-11-10T03:27:37;12.77;;;8.97;;
21181;SDS011;10749;46.296;7.524;2022-11-10T03:30:03;10.27;;;9.10;;
21181;SDS011;10749;46.296;7.524;2022-11-10T03:32:30;11.90;;;8.90;;
21181;SDS011;10749;46.296;7.524;2022-11-10T03:34:55;11.07;;;8.57;;
21181;SDS011;10749;46.296;7.524;2022-11-10T03:37:21;13.00;;;9.20;;
21181;SDS011;10749;46.296;7.524;2022-11-10T03:39:46;11.33;;;8.90;;
21181;SDS011;10749;46.296;7.524;2022-11-10T03:42:11;11.97;;;8.90;;
21181;SDS011;10749;46.296;7.524;2022-11-10T03:44:37;11.67;;;9.27;;
21181;SDS011;10749;46.296;7.524;2022-11-10T03:47:02;11.67;;;9.17;;
21181;SDS011;10749;46.296;7.524;2022-11-10T03:49:28;12.20;;;9.30;;
21181;SDS011;10749;46.296;7.524;2022-11-10T03:51:54;16.70;;;10.03;;
21181;SDS011;10749;46.296;7.524;2022-11-10T03:54:20;12.27;;;9.77;;
21181;SDS011;10749;46.296;7.524;2022-11-10T03:56:45;11.47;;;8.67;;
21181;SDS011;10749;46.296;7.524;2022-11-10T03:59:10;12.17;;;9.17;;
21181;SDS011;10749;46.296;7.524;2022-11-10T04:01:36;12.10;;;9.83;;
21181;SDS011;10749;46.296;7.524;2022-11-10T04:04:01;12.60;;;9.57;;
21181;SDS011;10749;46.296;7.524;2022-11-10T04:06:26;13.63;;;10.63;;
21181;SDS011;10749;46.296;7.524;2022-11-10T04:09:10;14.40;;;10.80;;
21181;SDS011;10749;46.296;7.524;2022-11-10T04:11:35;16.73;;;11.90;;
21181;SDS011;10749;46.296;7.524;2022-11-10T04:14:19;14.43;;;11.40;;
21181;SDS011;10749;46.296;7.524;2022-11-10T04:17:03;14.93;;;11.03;;
21181;SDS011;10749;46.296;7.524;2022-11-10T04:19:29;13.83;;;10.97;;
21181;SDS011;10749;46.296;7.524;2022-11-10T04:21:55;16.00;;;11.10;;
21181;SDS011;10749;46.296;7.524;2022-11-10T04:24:21;14.93;;;10.30;;
21181;SDS011;10749;46.296;7.524;2022-11-10T04:26:46;17.10;;;10.93;;
21181;SDS011;10749;46.296;7.524;2022-11-10T04:29:13;17.33;;;11.83;;
21181;SDS011;10749;46.296;7.524;2022-11-10T04:31:40;14.67;;;11.13;;
21181;SDS011;10749;46.296;7.524;2022-11-10T04:34:08;15.33;;;10.73;;
21181;SDS011;10749;46.296;7.524;2022-11-10T04:36:36;15.53;;;11.10;;
21181;SDS011;10749;46.296;7.524;2022-11-10T04:39:04;17.83;;;11.47;;
21181;SDS011;10749;46.296;7.524;2022-11-10T04:41:30;16.43;;;11.90;;
21181;SDS011;10749;46.296;7.524;2022-11-10T04:43:56;14.33;;;11.70;;
21181;SDS011;10749;46.296;7.524;2022-11-10T04:48:57;13.87;;;11.07;;
21181;SDS011;10749;46.296;7.524;2022-11-10T04:51:25;14.03;;;10.97;;
21181;SDS011;10749;46.296;7.524;2022-11-10T04:53:52;15.30;;;11.63;;
21181;SDS011;10749;46.296;7.524;2022-11-10T04:56:18;15.13;;;11.53;;
21181;SDS011;10749;46.296;7.524;2022-11-10T04:58:45;15.67;;;11.47;;
21181;SDS011;10749;46.296;7.524;2022-11-10T05:01:12;12.90;;;10.33;;
21181;SDS011;10749;46.296;7.524;2022-11-10T05:06:14;15.37;;;10.23;;
21181;SDS011;10749;46.296;7.524;2022-11-10T05:08:41;12.43;;;8.63;;
21181;SDS011;10749;46.296;7.524;2022-11-10T05:11:07;13.10;;;10.20;;
21181;SDS011;10749;46.296;7.524;2022-11-10T05:13:33;12.87;;;9.17;;
21181;SDS011;10749;46.296;7.524;2022-11-10T05:15:59;11.40;;;9.43;;
21181;SDS011;10749;46.296;7.524;2022-11-10T05:18:24;12.03;;;8.87;;
21181;SDS011;10749;46.296;7.524;2022-11-10T05:20:50;10.07;;;8.63;;
21181;SDS011;10749;46.296;7.524;2022-11-10T05:23:17;13.10;;;9.93;;
21181;SDS011;10749;46.296;7.524;2022-11-10T05:26:02;12.93;;;10.47;;
21181;SDS011;10749;46.296;7.524;2022-11-10T05:28:38;16.50;;;11.03;;
21181;SDS011;10749;46.296;7.524;2022-11-10T05:31:05;14.63;;;11.60;;
21181;SDS011;10749;46.296;7.524;2022-11-10T05:33:31;16.37;;;12.30;;
21181;SDS011;10749;46.296;7.524;2022-11-10T05:35:56;18.70;;;12.63;;
21181;SDS011;10749;46.296;7.524;2022-11-10T05:38:22;16.67;;;12.03;;
21181;SDS011;10749;46.296;7.524;2022-11-10T05:40:47;19.60;;;12.33;;
21181;SDS011;10749;46.296;7.524;2022-11-10T05:43:13;16.67;;;11.80;;
21181;SDS011;10749;46.296;7.524;2022-11-10T05:45:39;16.63;;;12.87;;
21181;SDS011;10749;46.296;7.524;2022-11-10T05:48:04;15.70;;;12.37;;
21181;SDS011;10749;46.296;7.524;2022-11-10T05:50:30;17.17;;;12.43;;
21181;SDS011;10749;46.296;7.524;2022-11-10T05:52:55;16.50;;;12.33;;
21181;SDS011;10749;46.296;7.524;2022-11-10T05:55:21;15.13;;;11.67;;
21181;SDS011;10749;46.296;7.524;2022-11-10T05:57:49;13.90;;;10.47;;
21181;SDS011;10749;46.296;7.524;2022-11-10T06:00:16;14.43;;;10.70;;
21181;SDS011;10749;46.296;7.524;2022-11-10T06:02:45;10.93;;;8.10;;
21181;SDS011;10749;46.296;7.524;2022-11-10T06:05:21;10.73;;;8.20;;
21181;SDS011;10749;46.296;7.524;2022-11-10T06:07:46;11.90;;;9.93;;
21181;SDS011;10749;46.296;7.524;2022-11-10T06:10:11;14.03;;;10.80;;
21181;SDS011;10749;46.296;7.524;2022-11-10T06:12:36;13.37;;;10.87;;
21181;SDS011;10749;46.296;7.524;2022-11-10T06:15:02;13.70;;;10.70;;
21181;SDS011;10749;46.296;7.524;2022-11-10T06:17:28;14.37;;;10.30;;
21181;SDS011;10749;46.296;7.524;2022-11-10T06:19:53;12.40;;;10.17;;
21181;SDS011;10749;46.296;7.524;2022-11-10T06:22:18;12.97;;;10.83;;
21181;SDS011;10749;46.296;7.524;2022-11-10T06:24:44;15.47;;;11.27;;
21181;SDS011;10749;46.296;7.524;2022-11-10T06:27:09;16.07;;;12.07;;
21181;SDS011;10749;46.296;7.524;2022-11-10T06:29:34;16.07;;;11.60;;
21181;SDS011;10749;46.296;7.524;2022-11-10T06:32:00;15.77;;;11.67;;
21181;SDS011;10749;46.296;7.524;2022-11-10T06:34:26;18.13;;;11.30;;
21181;SDS011;10749;46.296;7.524;2022-11-10T06:36:52;13.23;;;10.73;;
21181;SDS011;10749;46.296;7.524;2022-11-10T06:39:17;14.67;;;11.60;;
21181;SDS011;10749;46.296;7.524;2022-11-10T06:41:42;13.77;;;11.13;;
21181;SDS011;10749;46.296;7.524;2022-11-10T06:44:07;15.40;;;11.87;;
21181;SDS011;10749;46.296;7.524;2022-11-10T06:46:34;15.60;;;11.27;;
21181;SDS011;10749;46.296;7.524;2022-11-10T06:48:59;14.57;;;11.93;;
21181;SDS011;10749;46.296;7.524;2022-11-10T06:51:25;14.80;;;11.33;;
21181;SDS011;10749;46.296;7.524;2022-11-10T06:53:50;14.70;;;11.37;;
21181;SDS011;10749;46.296;7.524;2022-11-10T06:56:15;13.97;;;11.00;;
21181;SDS011;10749;46.296;7.524;2022-11-10T06:58:41;15.03;;;11.27;;
21181;SDS011;10749;46.296;7.524;2022-11-10T07:01:06;14.60;;;11.63;;
21181;SDS011;10749;46.296;7.524;2022-11-10T07:03:31;15.57;;;11.20;;
21181;SDS011;10749;46.296;7.524;2022-11-10T07:05:57;12.43;;;9.67;;
21181;SDS011;10749;46.296;7.524;2022-11-10T07:08:22;12.83;;;9.83;;
21181;SDS011;10749;46.296;7.524;2022-11-10T07:10:51;11.83;;;9.37;;
21181;SDS011;10749;46.296;7.524;2022-11-10T07:13:18;11.00;;;8.57;;
21181;SDS011;10749;46.296;7.524;2022-11-10T07:15:43;11.20;;;8.90;;
21181;SDS011;10749;46.296;7.524;2022-11-10T07:18:08;9.63;;;8.07;;
21181;SDS011;10749;46.296;7.524;2022-11-10T07:20:34;9.13;;;7.23;;
21181;SDS011;10749;46.296;7.524;2022-11-10T07:23:00;9.50;;;7.27;;
21181;SDS011;10749;46.296;7.524;2022-11-10T07:25:28;9.30;;;7.70;;
21181;SDS011;10749;46.296;7.524;2022-11-10T07:27:55;9.60;;;7.70;;
21181;SDS011;10749;46.296;7.524;2022-11-10T07:30:25;10.53;;;7.83;;
21181;SDS011;10749;46.296;7.524;2022-11-10T07:33:02;9.83;;;7.53;;
21181;SDS011;10749;46.296;7.524;2022-11-10T07:35:29;11.83;;;8.27;;
21181;SDS011;10749;46.296;7.524;2022-11-10T07:37:56;12.27;;;8.50;;
21181;SDS011;10749;46.296;7.524;2022-11-10T07:40:22;10.20;;;8.10;;
21181;SDS011;10749;46.296;7.524;2022-11-10T07:42:48;9.77;;;7.60;;
21181;SDS011;10749;46.296;7.524;2022-11-10T07:45:13;10.67;;;7.90;;
21181;SDS011;10749;46.296;7.524;2022-11-10T07:47:39;9.43;;;7.63;;
21181;SDS011;10749;46.296;7.524;2022-11-10T07:50:04;12.57;;;8.07;;
21181;SDS011;10749;46.296;7.524;2022-11-10T07:52:30;8.70;;;6.97;;
21181;SDS011;10749;46.296;7.524;2022-11-10T07:54:55;8.20;;;6.83;;
21181;SDS011;10749;46.296;7.524;2022-11-10T07:57:21;7.83;;;6.20;;
21181;SDS011;10749;46.296;7.524;2022-11-10T07:59:46;8.13;;;6.73;;
21181;SDS011;10749;46.296;7.524;2022-11-10T08:02:11;8.47;;;6.40;;
21181;SDS011;10749;46.296;7.524;2022-11-10T08:04:37;9.50;;;7.00;;
21181;SDS011;10749;46.296;7.524;2022-11-10T08:07:02;9.63;;;7.30;;
21181;SDS011;10749;46.296;7.524;2022-11-10T08:09:27;13.97;;;8.60;;
21181;SDS011;10749;46.296;7.524;2022-11-10T08:11:53;13.47;;;8.30;;
21181;SDS011;10749;46.296;7.524;2022-11-10T08:14:18;13.03;;;9.10;;
21181;SDS011;10749;46.296;7.524;2022-11-10T08:16:43;12.90;;;7.97;;
21181;SDS011;10749;46.296;7.524;2022-11-10T08:19:09;7.63;;;5.87;;
21181;SDS011;10749;46.296;7.524;2022-11-10T08:21:34;6.60;;;5.37;;
21181;SDS011;10749;46.296;7.524;2022-11-10T08:23:59;4.93;;;4.03;;
21181;SDS011;10749;46.296;7.524;2022-11-10T08:26:25;3.90;;;3.23;;
21181;SDS011;10749;46.296;7.524;2022-11-10T08:28:50;4.93;;;3.40;;
21181;SDS011;10749;46.296;7.524;2022-11-10T08:31:15;6.80;;;4.67;;
21181;SDS011;10749;46.296;7.524;2022-11-10T08:33:41;5.53;;;4.43;;
21181;SDS011;10749;46.296;7.524;2022-11-10T08:36:06;5.20;;;4.37;;
21181;SDS011;10749;46.296;7.524;2022-11-10T08:38:32;3.97;;;3.30;;
21181;SDS011;10749;46.296;7.524;2022-11-10T08:40:57;4.50;;;3.50;;
21181;SDS011;10749;46.296;7.524;2022-11-10T08:43:22;8.07;;;5.83;;
21181;SDS011;10749;46.296;7.524;2022-11-10T08:45:54;11.60;;;9.00;;
21181;SDS011;10749;46.296;7.524;2022-11-10T08:48:26;13.90;;;9.73;;
21181;SDS011;10749;46.296;7.524;2022-11-10T08:50:51;14.47;;;11.77;;
21181;SDS011;10749;46.296;7.524;2022-11-10T08:53:18;15.40;;;11.77;;
21181;SDS011;10749;46.296;7.524;2022-11-10T08:55:46;15.70;;;11.63;;
21181;SDS011;10749;46.296;7.524;2022-11-10T08:58:13;15.30;;;11.87;;
21181;SDS011;10749;46.296;7.524;2022-11-10T09:00:40;16.33;;;11.43;;
21181;SDS011;10749;46.296;7.524;2022-11-10T09:03:13;12.20;;;10.60;;
21181;SDS011;10749;46.296;7.524;2022-11-10T09:05:40;14.80;;;11.27;;
21181;SDS011;10749;46.296;7.524;2022-11-10T09:08:05;15.50;;;11.07;;
21181;SDS011;10749;46.296;7.524;2022-11-10T09:10:32;16.10;;;10.77;;
21181;SDS011;10749;46.296;7.524;2022-11-10T09:12:59;12.97;;;10.90;;
21181;SDS011;10749;46.296;7.524;2022-11-10T09:15:25;13.30;;;10.87;;
21181;SDS011;10749;46.296;7.524;2022-11-10T09:17:51;16.53;;;10.40;;
21181;SDS011;10749;46.296;7.524;2022-11-10T09:20:17;13.70;;;10.27;;
21181;SDS011;10749;46.296;7.524;2022-11-10T09:22:42;12.87;;;10.33;;
21181;SDS011;10749;46.296;7.524;2022-11-10T09:25:08;11.50;;;9.43;;
21181;SDS011;10749;46.296;7.524;2022-11-10T09:27:34;10.50;;;8.10;;
21181;SDS011;10749;46.296;7.524;2022-11-10T09:30:01;8.73;;;6.90;;
21181;SDS011;10749;46.296;7.524;2022-11-10T09:32:27;8.20;;;6.70;;
21181;SDS011;10749;46.296;7.524;2022-11-10T09:34:53;5.30;;;4.80;;
21181;SDS011;10749;46.296;7.524;2022-11-10T09:37:18;5.83;;;4.27;;
21181;SDS011;10749;46.296;7.524;2022-11-10T09:39:44;5.87;;;4.00;;
21181;SDS011;10749;46.296;7.524;2022-11-10T09:42:19;9.07;;;6.77;;
21181;SDS011;10749;46.296;7.524;2022-11-10T09:44:50;8.63;;;5.70;;
21181;SDS011;10749;46.296;7.524;2022-11-10T09:47:26;8.60;;;5.53;;
21181;SDS011;10749;46.296;7.524;2022-11-10T09:49:59;6.20;;;5.03;;
21181;SDS011;10749;46.296;7.524;2022-11-10T09:52:26;7.83;;;5.33;;
21181;SDS011;10749;46.296;7.524;2022-11-10T09:54:57;6.37;;;5.00;;
21181;SDS011;10749;46.296;7.524;2022-11-10T09:57:27;6.13;;;4.77;;
21181;SDS011;10749;46.296;7.524;2022-11-10T09:59:53;5.13;;;3.57;;
21181;SDS011;10749;46.296;7.524;2022-11-10T10:05:06;4.57;;;3.23;;
21181;SDS011;10749;46.296;7.524;2022-11-10T10:16:26;4.27;;;2.53;;
21181;SDS011;10749;46.296;7.524;2022-11-10T10:24:33;5.80;;;3.87;;
21181;SDS011;10749;46.296;7.524;2022-11-10T10:27:05;3.33;;;2.20;;
21181;SDS011;10749;46.296;7.524;2022-11-10T10:29:36;3.73;;;2.70;;
21181;SDS011;10749;46.296;7.524;2022-11-10T10:32:04;3.87;;;3.23;;
21181;SDS011;10749;46.296;7.524;2022-11-10T10:34:35;4.87;;;3.23;;
21181;SDS011;10749;46.296;7.524;2022-11-10T10:37:00;7.00;;;4.50;;
21181;SDS011;10749;46.296;7.524;2022-11-10T10:39:27;4.93;;;3.83;;
21181;SDS011;10749;46.296;7.524;2022-11-10T10:41:57;3.83;;;2.90;;
21181;SDS011;10749;46.296;7.524;2022-11-10T10:44:23;5.30;;;2.73;;
21181;SDS011;10749;46.296;7.524;2022-11-10T10:46:49;3.47;;;1.80;;
21181;SDS011;10749;46.296;7.524;2022-11-10T10:51:43;21.75;;;8.80;;
21181;SDS011;10749;46.296;7.524;2022-11-10T10:54:21;21.17;;;10.43;;
21181;SDS011;10749;46.296;7.524;2022-11-10T10:56:48;37.83;;;16.70;;
21181;SDS011;10749;46.296;7.524;2022-11-10T10:59:18;50.13;;;21.77;;
21181;SDS011;10749;46.296;7.524;2022-11-10T11:01:46;11.57;;;5.80;;
21181;SDS011;10749;46.296;7.524;2022-11-10T11:04:33;41.03;;;17.10;;
21181;SDS011;10749;46.296;7.524;2022-11-10T11:07:05;44.63;;;19.60;;
21181;SDS011;10749;46.296;7.524;2022-11-10T11:09:44;3.88;;;1.38;;
21181;SDS011;10749;46.296;7.524;2022-11-10T11:12:13;63.80;;;27.33;;
21181;SDS011;10749;46.296;7.524;2022-11-10T11:14:51;48.17;;;21.40;;
21181;SDS011;10749;46.296;7.524;2022-11-10T11:17:34;11.13;;;4.80;;
21181;SDS011;10749;46.296;7.524;2022-11-10T11:19:59;34.63;;;14.75;;
21181;SDS011;10749;46.296;7.524;2022-11-10T11:23:07;44.08;;;19.67;;
21181;SDS011;10749;46.296;7.524;2022-11-10T11:28:01;25.40;;;12.05;;
21181;SDS011;10749;46.296;7.524;2022-11-10T11:30:49;26.65;;;12.45;;
21181;SDS011;10749;46.296;7.524;2022-11-10T11:33:49;37.00;;;16.50;;
21181;SDS011;10749;46.296;7.524;2022-11-10T11:36:42;38.00;;;18.60;;
21181;SDS011;10749;46.296;7.524;2022-11-10T11:41:58;19.83;;;9.57;;
21181;SDS011;10749;46.296;7.524;2022-11-10T11:47:21;4.00;;;1.95;;
21181;SDS011;10749;46.296;7.524;2022-11-10T11:52:59;8.43;;;3.78;;
21181;SDS011;10749;46.296;7.524;2022-11-10T11:56:05;7.38;;;4.00;;
21181;SDS011;10749;46.296;7.524;2022-11-10T12:01:38;1.48;;;0.90;;
21181;SDS011;10749;46.296;7.524;2022-11-10T12:07:10;1.40;;;1.20;;
21181;SDS011;10749;46.296;7.524;2022-11-10T12:09:43;1.98;;;1.23;;
21181;SDS011;10749;46.296;7.524;2022-11-10T12:14:51;3.63;;;1.80;;
21181;SDS011;10749;46.296;7.524;2022-11-10T12:28:27;2.30;;;1.42;;
21181;SDS011;10749;46.296;7.524;2022-11-10T12:30:58;5.85;;;2.67;;
21181;SDS011;10749;46.296;7.524;2022-11-10T12:36:24;2.88;;;1.50;;
21181;SDS011;10749;46.296;7.524;2022-11-10T12:41:18;4.75;;;2.03;;
21181;SDS011;10749;46.296;7.524;2022-11-10T12:44:01;1.95;;;1.23;;
21181;SDS011;10749;46.296;7.524;2022-11-10T12:46:27;1.17;;;0.90;;
21181;SDS011;10749;46.296;7.524;2022-11-10T12:48:59;7.30;;;3.50;;
21181;SDS011;10749;46.296;7.524;2022-11-10T12:51:32;2.35;;;1.50;;
21181;SDS011;10749;46.296;7.524;2022-11-10T12:54:03;2.97;;;1.17;;
21181;SDS011;10749;46.296;7.524;2022-11-10T13:01:43;2.42;;;1.20;;
21181;SDS011;10749;46.296;7.524;2022-11-10T13:04:14;1.70;;;1.25;;
21181;SDS011;10749;46.296;7.524;2022-11-10T13:06:47;1.77;;;1.00;;
21181;SDS011;10749;46.296;7.524;2022-11-10T13:14:34;6.78;;;3.60;;
21181;SDS011;10749;46.296;7.524;2022-11-10T13:17:00;3.20;;;1.25;;
21181;SDS011;10749;46.296;7.524;2022-11-10T13:24:25;1.80;;;0.98;;
21181;SDS011;10749;46.296;7.524;2022-11-10T13:29:33;5.55;;;1.88;;
21181;SDS011;10749;46.296;7.524;2022-11-10T13:34:45;1.48;;;1.10;;
21181;SDS011;10749;46.296;7.524;2022-11-10T13:42:42;2.42;;;1.50;;
21181;SDS011;10749;46.296;7.524;2022-11-10T13:56:25;2.63;;;1.00;;
21181;SDS011;10749;46.296;7.524;2022-11-10T13:58:56;3.80;;;1.60;;
21181;SDS011;10749;46.296;7.524;2022-11-10T14:01:25;2.30;;;1.20;;
21181;SDS011;10749;46.296;7.524;2022-11-10T14:03:54;3.13;;;1.20;;
21181;SDS011;10749;46.296;7.524;2022-11-10T14:06:26;3.33;;;1.40;;
21181;SDS011;10749;46.296;7.524;2022-11-10T14:09:10;2.38;;;1.20;;
21181;SDS011;10749;46.296;7.524;2022-11-10T14:11:46;1.35;;;0.93;;
21181;SDS011;10749;46.296;7.524;2022-11-10T14:14:20;2.80;;;1.27;;
21181;SDS011;10749;46.296;7.524;2022-11-10T14:16:51;1.50;;;1.10;;
21181;SDS011;10749;46.296;7.524;2022-11-10T14:22:00;4.75;;;2.30;;
21181;SDS011;10749;46.296;7.524;2022-11-10T14:24:34;4.80;;;2.03;;
21181;SDS011;10749;46.296;7.524;2022-11-10T14:27:07;9.50;;;2.58;;
21181;SDS011;10749;46.296;7.524;2022-11-10T14:29:37;9.80;;;4.07;;
21181;SDS011;10749;46.296;7.524;2022-11-10T14:32:25;4.25;;;2.00;;
21181;SDS011;10749;46.296;7.524;2022-11-10T14:34:51;6.47;;;2.75;;
21181;SDS011;10749;46.296;7.524;2022-11-10T14:37:21;4.57;;;1.70;;
21181;SDS011;10749;46.296;7.524;2022-11-10T14:39:49;3.58;;;1.58;;
21181;SDS011;10749;46.296;7.524;2022-11-10T14:42:20;7.90;;;1.40;;
21181;SDS011;10749;46.296;7.524;2022-11-10T14:44:48;6.10;;;1.08;;
21181;SDS011;10749;46.296;7.524;2022-11-10T14:49:45;3.00;;;1.00;;
21181;SDS011;10749;46.296;7.524;2022-11-10T14:52:10;1.90;;;1.13;;
21181;SDS011;10749;46.296;7.524;2022-11-10T14:54:37;2.10;;;1.00;;
21181;SDS011;10749;46.296;7.524;2022-11-10T14:57:02;3.85;;;1.10;;
21181;SDS011;10749;46.296;7.524;2022-11-10T14:59:29;2.60;;;1.10;;
21181;SDS011;10749;46.296;7.524;2022-11-10T15:01:58;2.17;;;1.15;;
21181;SDS011;10749;46.296;7.524;2022-11-10T15:04:27;3.75;;;1.10;;
21181;SDS011;10749;46.296;7.524;2022-11-10T15:06:55;4.78;;;1.40;;
21181;SDS011;10749;46.296;7.524;2022-11-10T15:09:24;6.18;;;1.30;;
21181;SDS011;10749;46.296;7.524;2022-11-10T15:11:53;3.17;;;2.70;;
21181;SDS011;10749;46.296;7.524;2022-11-10T15:14:32;5.43;;;2.95;;
21181;SDS011;10749;46.296;7.524;2022-11-10T15:17:10;5.77;;;2.30;;
21181;SDS011;10749;46.296;7.524;2022-11-10T15:22:28;2.33;;;1.15;;
21181;SDS011;10749;46.296;7.524;2022-11-10T15:25:06;2.38;;;0.90;;
21181;SDS011;10749;46.296;7.524;2022-11-10T15:27:42;2.87;;;0.90;;
21181;SDS011;10749;46.296;7.524;2022-11-10T15:30:28;1.58;;;0.95;;
21181;SDS011;10749;46.296;7.524;2022-11-10T15:32:54;2.53;;;1.00;;
21181;SDS011;10749;46.296;7.524;2022-11-10T15:38:01;3.97;;;1.10;;
21181;SDS011;10749;46.296;7.524;2022-11-10T15:40:32;3.30;;;1.20;;
21181;SDS011;10749;46.296;7.524;2022-11-10T15:45:51;3.63;;;1.30;;
21181;SDS011;10749;46.296;7.524;2022-11-10T15:48:19;2.77;;;0.90;;
21181;SDS011;10749;46.296;7.524;2022-11-10T15:50:45;3.53;;;0.90;;
21181;SDS011;10749;46.296;7.524;2022-11-10T15:53:13;1.90;;;1.07;;
21181;SDS011;10749;46.296;7.524;2022-11-10T15:55:50;1.83;;;0.90;;
21181;SDS011;10749;46.296;7.524;2022-11-10T15:58:19;1.57;;;0.90;;
21181;SDS011;10749;46.296;7.524;2022-11-10T16:00:46;2.13;;;1.00;;
21181;SDS011;10749;46.296;7.524;2022-11-10T16:03:12;1.13;;;0.80;;
21181;SDS011;10749;46.296;7.524;2022-11-10T16:05:43;1.83;;;0.80;;
21181;SDS011;10749;46.296;7.524;2022-11-10T16:08:19;2.93;;;1.00;;
21181;SDS011;10749;46.296;7.524;2022-11-10T16:10:52;3.73;;;1.20;;
21181;SDS011;10749;46.296;7.524;2022-11-10T16:13:21;2.10;;;1.00;;
21181;SDS011;10749;46.296;7.524;2022-11-10T16:15:50;1.70;;;1.10;;
21181;SDS011;10749;46.296;7.524;2022-11-10T16:18:16;1.60;;;0.80;;
21181;SDS011;10749;46.296;7.524;2022-11-10T16:20:44;1.30;;;0.50;;
21181;SDS011;10749;46.296;7.524;2022-11-10T16:23:10;1.03;;;0.60;;
21181;SDS011;10749;46.296;7.524;2022-11-10T16:25:35;2.80;;;1.27;;
21181;SDS011;10749;46.296;7.524;2022-11-10T16:28:03;3.37;;;2.10;;
21181;SDS011;10749;46.296;7.524;2022-11-10T16:30:29;2.50;;;1.90;;
21181;SDS011;10749;46.296;7.524;2022-11-10T16:32:56;2.63;;;1.10;;
21181;SDS011;10749;46.296;7.524;2022-11-10T16:35:21;1.10;;;0.80;;
21181;SDS011;10749;46.296;7.524;2022-11-10T16:37:47;3.27;;;1.10;;